Terminal Aerodrome Forecast
Issued by NWS

Current Version | Previous Version | Text Only | Print | Product List | Glossary On
Versions: 1 2 3 4 5 6 7 8 9 10 11 12 13 14 15 16 17 18 19
000
FTUS46 KSGX 260520
TAFONT
TAF
KONT 260520Z 2606/2712 26006KT P6SM SCT035
     FM261000 25005KT P6SM OVC025
     FM261800 25006KT P6SM SCT025
     FM262000 26012G20KT P6SM SCT025
     FM270400 26006KT P6SM SCT025
     FM270900 VRB04KT P6SM OVC020=

USA.gov is the U.S. government's official web portal to all federal, state and local government web resources and services.